Time;durP1;ratioP1;P1;durP2;ratioP2;P2;SDS_P1;SDS_P2;PMS_P1;PMS_P2;Temp;Humidity;BMP_temperature;BMP_pressure;BME280_temperature;BME280_humidity;BME280_pressure;Samples;Min_cycle;Max_cycle;Signal;HPM_P1;HPM_P2
2022/08/11 00:01:19;;;;;;;11.00;4.60;;;16.10;1.00;;;;;;5032510;28;20421;-48
2022/08/11 00:04:02;;;;;;;5.23;4.00;;;16.00;1.00;;;;;;5031444;28;20445;-48
2022/08/11 00:06:31;;;;;;;14.47;4.73;;;16.00;1.00;;;;;;5031730;28;20568;-50
2022/08/11 00:08:59;;;;;;;9.67;4.60;;;15.90;1.00;;;;;;5032073;28;20417;-49
2022/08/11 00:11:40;;;;;;;8.90;4.80;;;15.90;1.00;;;;;;5032134;28;20502;-51
2022/08/11 00:14:16;;;;;;;9.60;4.80;;;15.90;1.00;;;;;;5030364;28;20445;-49
2022/08/11 00:16:43;;;;;;;10.00;4.63;;;15.80;1.00;;;;;;5032228;28;20478;-49
2022/08/11 00:19:09;;;;;;;7.10;4.30;;;15.80;1.00;;;;;;5031868;28;20403;-49
2022/08/11 00:21:42;;;;;;;6.83;4.13;;;15.80;1.00;;;;;;5031358;28;20417;-49
2022/08/11 00:24:08;;;;;;;5.00;4.30;;;15.70;1.00;;;;;;5031021;28;20461;-49
2022/08/11 00:26:35;;;;;;;5.00;4.50;;;15.70;1.00;;;;;;5031989;28;20870;-49
2022/08/11 00:29:11;;;;;;;6.60;4.10;;;15.60;1.00;;;;;;5031805;28;20405;-49
2022/08/11 00:31:43;;;;;;;5.20;4.20;;;15.60;1.00;;;;;;5030106;28;20882;-49
2022/08/11 00:34:13;;;;;;;4.37;3.97;;;15.60;1.00;;;;;;5030624;28;20457;-50
2022/08/11 00:36:50;;;;;;;5.13;4.50;;;15.60;1.00;;;;;;5031655;28;20398;-50
2022/08/11 00:39:18;;;;;;;6.13;4.00;;;15.60;1.00;;;;;;5031546;28;20392;-49
2022/08/11 00:42:09;;;;;;;6.77;4.70;;;15.60;1.00;;;;;;5031023;28;20452;-50
2022/08/11 00:45:05;;;;;;;5.83;4.30;;;15.60;1.00;;;;;;5030047;28;20441;-50
2022/08/11 00:47:32;;;;;;;6.33;4.37;;;15.50;1.00;;;;;;5030844;28;20433;-50
2022/08/11 00:50:09;;;;;;;6.80;4.53;;;15.50;1.00;;;;;;5031461;28;20981;-49
2022/08/11 00:52:58;;;;;;;5.90;4.03;;;15.40;1.00;;;;;;5030394;28;20822;-49
2022/08/11 00:55:43;;;;;;;7.13;4.47;;;15.40;1.00;;;;;;5011509;28;20418;-54
2022/08/11 00:58:37;;;;;;;4.97;4.30;;;15.30;1.00;;;;;;5026532;28;20437;-50
2022/08/11 01:01:09;;;;;;;6.03;4.40;;;15.30;1.00;;;;;;5000587;28;20433;-49
2022/08/11 01:04:17;;;;;;;8.20;4.80;;;15.20;1.00;;;;;;5030902;28;20437;-49
2022/08/11 01:07:08;;;;;;;5.30;4.67;;;15.20;1.00;;;;;;5017657;28;20448;-50
2022/08/11 01:10:05;;;;;;;6.73;4.43;;;15.10;1.00;;;;;;5031038;28;20413;-50
2022/08/11 01:12:58;;;;;;;10.50;4.80;;;15.10;1.00;;;;;;5030012;28;20493;-48
2022/08/11 01:15:59;;;;;;;5.97;4.47;;;15.10;1.00;;;;;;5030709;28;20773;-50
2022/08/11 01:18:43;;;;;;;8.10;4.90;;;15.10;1.00;;;;;;4989723;28;20943;-50
2022/08/11 01:21:19;;;;;;;8.07;5.00;;;15.00;1.00;;;;;;5011503;28;20399;-50
2022/08/11 01:24:22;;;;;;;5.10;4.50;;;15.00;1.00;;;;;;5030566;28;20563;-50
2022/08/11 01:27:05;;;;;;;5.23;4.43;;;15.00;1.00;;;;;;5011501;28;20421;-51
2022/08/11 01:29:46;;;;;;;5.13;4.40;;;15.00;1.00;;;;;;5011436;28;20406;-49
2022/08/11 01:32:44;;;;;;;6.07;4.70;;;14.90;1.00;;;;;;5017414;28;21004;-50
2022/08/11 01:35:28;;;;;;;7.33;5.00;;;14.90;1.00;;;;;;5017964;28;20549;-50
2022/08/11 01:38:30;;;;;;;5.93;4.70;;;14.80;1.00;;;;;;5017565;28;20410;-50
2022/08/11 01:44:38;;;;;;;7.17;4.53;;;14.80;33.30;;;;;;5017670;28;20740;-48
2022/08/11 01:47:51;;;;;;;5.43;4.30;;;14.80;36.80;;;;;;4973066;28;20437;-55
2022/08/11 01:50:32;;;;;;;5.90;4.70;;;14.80;21.70;;;;;;5030035;28;20920;-50
2022/08/11 01:53:22;;;;;;;8.23;4.17;;;14.70;13.10;;;;;;5035071;28;20540;-49
2022/08/11 01:56:22;;;;;;;6.50;4.80;;;14.70;34.60;;;;;;5037496;28;20420;-50
2022/08/11 01:59:04;;;;;;;6.00;4.43;;;14.70;38.80;;;;;;5036446;28;20394;-50
2022/08/11 02:01:41;;;;;;;6.93;4.70;;;14.70;52.20;;;;;;5017241;28;20500;-50
2022/08/11 02:04:22;;;;;;;7.57;5.20;;;14.60;73.20;;;;;;5017687;28;20414;-49
2022/08/11 02:06:59;;;;;;;6.87;4.50;;;14.60;87.40;;;;;;5017459;28;20477;-49
2022/08/11 02:09:27;;;;;;;7.10;5.30;;;14.50;99.90;;;;;;5019230;28;20444;-50
2022/08/11 02:12:04;;;;;;;8.23;4.90;;;14.50;99.90;;;;;;5037210;28;20520;-50
2022/08/11 02:14:43;;;;;;;6.03;4.87;;;14.50;99.90;;;;;;5037092;28;20435;-50
2022/08/11 02:17:17;;;;;;;7.70;4.97;;;14.50;99.90;;;;;;5036038;28;20445;-50
2022/08/11 02:26:21;;;;;;;5.90;5.10;;;14.50;99.90;;;;;;5036393;28;20612;-49
2022/08/11 02:29:09;;;;;;;5.97;4.90;;;14.50;99.90;;;;;;5037062;28;20757;-50
2022/08/11 02:35:02;;;;;;;6.50;4.87;;;14.40;99.90;;;;;;5037076;28;20393;-50
2022/08/11 02:37:33;;;;;;;6.67;4.83;;;14.40;99.90;;;;;;5036959;28;20402;-52
2022/08/11 02:40:22;;;;;;;7.90;4.80;;;14.40;99.90;;;;;;5036090;28;21170;-50
2022/08/11 02:42:47;;;;;;;7.60;4.97;;;14.40;99.90;;;;;;5036888;28;20393;-50
2022/08/11 02:45:45;;;;;;;7.10;5.07;;;14.30;99.90;;;;;;5033137;28;20493;-50
2022/08/11 02:51:24;;;;;;;7.30;5.20;;;14.30;99.90;;;;;;5032790;28;20996;-50
2022/08/11 02:54:20;;;;;;;9.20;4.60;;;14.20;99.90;;;;;;5032825;28;20473;-50
2022/08/11 02:57:03;;;;;;;7.90;5.10;;;14.20;99.90;;;;;;5033010;28;20422;-58
2022/08/11 02:59:54;;;;;;;9.17;4.70;;;14.20;99.90;;;;;;5033483;28;20925;-51
2022/08/11 03:02:47;;;;;;;6.53;5.33;;;14.20;99.90;;;;;;5031931;28;20535;-50
2022/08/11 03:05:38;;;;;;;8.07;4.60;;;14.10;1.00;;;;;;5033516;28;20398;-50
2022/08/11 03:08:12;;;;;;;6.67;5.23;;;14.10;1.00;;;;;;5033377;28;20733;-49
2022/08/11 03:17:40;;;;;;;10.17;4.87;;;14.10;1.00;;;;;;5033049;28;20441;-43
2022/08/11 03:20:29;;;;;;;8.87;4.47;;;14.10;1.00;;;;;;5030588;28;20453;-44
2022/08/11 03:23:23;;;;;;;7.37;4.97;;;14.00;1.00;;;;;;5033072;28;20888;-43
2022/08/11 03:26:27;;;;;;;5.27;4.77;;;14.00;1.00;;;;;;5033065;28;20499;-43
2022/08/11 03:29:09;;;;;;;5.07;4.60;;;13.90;1.00;;;;;;5031339;28;20441;-43
2022/08/11 03:31:45;;;;;;;5.30;4.80;;;13.90;1.00;;;;;;5032926;28;20464;-43
2022/08/11 03:34:20;;;;;;;6.90;5.27;;;13.90;1.00;;;;;;5032288;28;20536;-44
2022/08/11 03:37:08;;;;;;;8.40;5.00;;;13.90;1.00;;;;;;5031614;28;20540;-43
2022/08/11 03:40:05;;;;;;;6.27;5.20;;;13.80;1.00;;;;;;5032199;28;20662;-43
2022/08/11 03:43:02;;;;;;;6.20;5.07;;;13.90;1.00;;;;;;5028457;28;20528;-44
2022/08/11 03:45:36;;;;;;;5.77;5.10;;;13.80;29.10;;;;;;5031981;28;20445;-43
2022/08/11 03:48:01;;;;;;;5.43;4.93;;;13.80;98.70;;;;;;5032556;28;20410;-43
2022/08/11 03:50:51;;;;;;;5.57;5.00;;;13.80;99.90;;;;;;5031677;28;20492;-43
2022/08/11 03:53:55;;;;;;;9.00;5.07;;;13.80;99.90;;;;;;5031622;28;20235;-43
2022/08/11 03:56:48;;;;;;;10.30;5.17;;;13.80;99.90;;;;;;5025913;28;20429;-43
2022/08/11 03:59:29;;;;;;;8.93;4.80;;;13.80;92.00;;;;;;5032524;28;20410;-43
2022/08/11 04:02:27;;;;;;;5.87;5.00;;;13.80;99.90;;;;;;5032224;28;20417;-43
2022/08/11 04:05:30;;;;;;;6.57;5.30;;;13.80;99.90;;;;;;5030646;28;20799;-43
2022/08/11 04:08:44;;;;;;;7.17;5.43;;;13.80;99.90;;;;;;5031678;28;20799;-43
2022/08/11 04:11:24;;;;;;;5.93;5.20;;;13.80;99.90;;;;;;5032022;28;21233;-44
2022/08/11 04:16:48;;;;;;;7.93;5.07;;;13.80;99.90;;;;;;5031637;28;20433;-43
2022/08/11 04:19:55;;;;;;;6.00;5.37;;;13.80;99.90;;;;;;5032106;28;20424;-43
2022/08/11 04:22:21;;;;;;;10.67;5.67;;;13.80;99.90;;;;;;4967226;28;20540;-43
2022/08/11 04:25:08;;;;;;;6.90;5.10;;;13.90;99.90;;;;;;5030913;28;20469;-43
2022/08/11 04:28:04;;;;;;;6.20;5.10;;;13.90;99.90;;;;;;5031539;28;20873;-43
2022/08/11 04:30:39;;;;;;;7.30;5.20;;;13.90;99.90;;;;;;5012153;28;20541;-44
2022/08/11 04:33:17;;;;;;;5.63;5.03;;;13.90;1.00;;;;;;5011849;28;20921;-43
2022/08/11 04:35:58;;;;;;;5.60;4.77;;;14.00;1.00;;;;;;5026214;28;20445;-43
2022/08/11 04:38:48;;;;;;;8.20;5.00;;;14.00;99.90;;;;;;5031378;28;20394;-43
2022/08/11 04:45:10;;;;;;;6.60;5.07;;;14.10;99.90;;;;;;5017418;28;20529;-43
2022/08/11 05:03:32;;;;;;;9.10;4.70;;;14.50;99.90;;;;;;5013160;28;20397;-43
2022/08/11 05:06:14;;;;;;;4.60;4.20;;;14.60;58.70;;;;;;5013101;28;20483;-43
2022/08/11 05:08:59;;;;;;;6.83;4.73;;;14.70;11.10;;;;;;5012720;28;20449;-43
2022/08/11 05:11:43;;;;;;;8.77;5.20;;;14.80;1.00;;;;;;5031965;28;21032;-43
2022/08/11 05:36:54;;;;;;;8.43;6.10;;;15.70;1.00;;;;;;5032637;28;20405;-44
2022/08/11 05:56:53;;;;;;;9.07;4.63;;;18.10;1.00;;;;;;5032539;28;20464;-44
2022/08/11 05:59:22;;;;;;;5.10;4.67;;;18.50;1.00;;;;;;5030856;28;20413;-45
2022/08/11 06:01:49;;;;;;;8.13;5.37;;;18.80;1.00;;;;;;5030346;28;20406;-44
2022/08/11 06:04:20;;;;;;;10.10;5.43;;;19.00;1.00;;;;;;5019212;28;20442;-44
2022/08/11 06:06:57;;;;;;;10.23;5.33;;;19.40;99.90;;;;;;5025144;28;20450;-45
2022/08/11 06:09:36;;;;;;;8.10;5.50;;;19.60;99.90;;;;;;5027866;28;20448;-45
2022/08/11 06:12:18;;;;;;;6.30;4.53;;;19.90;99.90;;;;;;5030155;28;21032;-44
2022/08/11 06:14:45;;;;;;;11.17;4.73;;;20.20;99.90;;;;;;5030538;28;20468;-44
2022/08/11 06:17:12;;;;;;;8.73;4.83;;;20.40;99.90;;;;;;5029503;28;20438;-44
2022/08/11 06:19:40;;;;;;;6.60;4.63;;;20.70;99.90;;;;;;5030467;28;20468;-45
2022/08/11 06:22:11;;;;;;;11.67;4.87;;;20.90;99.90;;;;;;5033877;28;20836;-45
2022/08/11 06:24:40;;;;;;;8.50;4.40;;;21.10;99.90;;;;;;5033366;28;20509;-45
2022/08/11 06:27:07;;;;;;;13.47;5.13;;;21.30;99.90;;;;;;5033867;28;20531;-44
2022/08/11 06:29:39;;;;;;;7.60;4.57;;;21.60;99.90;;;;;;5033482;28;20461;-45
2022/08/11 06:32:05;;;;;;;7.03;4.40;;;21.80;99.90;;;;;;5033167;28;21241;-45
2022/08/11 06:35:08;;;;;;;10.00;4.60;;;22.10;99.90;;;;;;5033314;28;20491;-45
2022/08/11 06:37:58;;;;;;;5.23;4.23;;;22.30;99.90;;;;;;5031188;28;20449;-45
2022/08/11 06:40:39;;;;;;;7.50;4.43;;;22.40;99.90;;;;;;5033896;28;20452;-43
2022/08/11 06:43:10;;;;;;;8.03;4.23;;;22.70;99.90;;;;;;5032544;28;20790;-42
2022/08/11 06:45:40;;;;;;;6.77;4.20;;;22.90;99.90;;;;;;5032565;28;20438;-42
2022/08/11 06:48:14;;;;;;;10.33;4.30;;;23.10;99.90;;;;;;5049102;28;20436;-42
2022/08/11 06:53:24;;;;;;;13.50;4.80;;;23.70;99.90;;;;;;5032135;28;20488;-42
2022/08/11 07:01:46;;;;;;;8.20;4.27;;;24.40;99.90;;;;;;5033297;28;20922;-45
2022/08/11 07:04:21;;;;;;;7.40;4.30;;;24.60;99.90;;;;;;5032384;28;20445;-44
2022/08/11 07:15:54;;;;;;;7.33;4.53;;;25.40;99.90;;;;;;5032547;28;20559;-44
2022/08/11 07:29:54;;;;;;;11.43;3.90;;;26.60;99.90;;;;;;5032394;28;20620;-45
2022/08/11 07:32:25;;;;;;;5.10;3.87;;;26.80;99.90;;;;;;5032412;28;20460;-44
2022/08/11 07:35:19;;;;;;;6.87;3.67;;;27.00;99.90;;;;;;5020442;28;20456;-44
2022/08/11 07:37:55;;;;;;;7.73;4.07;;;27.20;99.90;;;;;;5013571;28;20518;-44
2022/08/11 07:40:23;;;;;;;9.47;4.00;;;27.40;99.90;;;;;;5025945;28;21285;-44
2022/08/11 07:42:51;;;;;;;9.87;4.23;;;27.60;99.90;;;;;;5023489;28;21196;-44
2022/08/11 07:53:33;;;;;;;6.40;3.27;;;28.40;99.90;;;;;;5028024;28;20877;-44
2022/08/11 07:56:01;;;;;;;9.20;3.57;;;28.40;99.90;;;;;;5031802;28;20453;-44
2022/08/11 08:17:57;;;;;;;4.60;2.93;;;30.30;99.90;;;;;;5031938;28;20449;-45
2022/08/11 08:20:31;;;;;;;4.03;3.17;;;30.60;99.90;;;;;;5030720;28;20449;-42
2022/08/11 08:22:58;;;;;;;6.07;3.40;;;30.90;99.90;;;;;;5028427;28;20497;-42
2022/08/11 08:25:32;;;;;;;5.60;3.10;;;31.00;99.90;;;;;;5026957;28;20496;-42
2022/08/11 08:27:59;;;;;;;3.93;2.87;;;31.20;99.90;;;;;;5014249;28;20430;-42
2022/08/11 08:33:30;;;;;;;9.23;3.00;;;31.50;99.90;;;;;;5031516;28;20465;-42
2022/08/11 08:36:11;;;;;;;5.63;3.70;;;31.70;99.90;;;;;;5031554;28;20504;-42
2022/08/11 08:38:48;;;;;;;5.10;3.13;;;31.70;99.90;;;;;;5031266;28;20959;-42
2022/08/11 08:41:20;;;;;;;3.23;2.93;;;31.70;99.90;;;;;;5031525;28;20401;-41
2022/08/11 08:43:50;;;;;;;4.90;2.80;;;31.80;99.90;;;;;;5030751;28;20433;-42
2022/08/11 08:46:19;;;;;;;4.80;3.00;;;32.00;99.90;;;;;;5031305;28;20417;-42
2022/08/11 08:48:47;;;;;;;6.30;2.93;;;32.30;99.90;;;;;;5031153;28;20402;-42
2022/08/11 08:54:06;;;;;;;4.30;2.60;;;32.40;99.90;;;;;;5031266;28;20899;-42
2022/08/11 08:56:33;;;;;;;5.77;3.03;;;32.60;99.90;;;;;;5031224;28;20468;-42
2022/08/11 08:59:01;;;;;;;10.90;3.10;;;32.90;99.90;;;;;;5031297;28;20421;-42
2022/08/11 09:01:36;;;;;;;4.80;2.90;;;33.10;99.90;;;;;;5030816;28;20426;-42
2022/08/11 09:04:07;;;;;;;7.17;3.20;;;33.30;99.90;;;;;;5031064;28;20872;-43
2022/08/11 09:06:38;;;;;;;3.90;2.40;;;33.10;99.90;;;;;;5011220;28;20469;-43
2022/08/11 09:09:07;;;;;;;8.53;3.17;;;33.20;99.90;;;;;;5011307;28;20422;-43
2022/08/11 09:11:54;;;;;;;8.53;2.47;;;33.20;99.90;;;;;;4993445;28;20466;-42
2022/08/11 09:14:19;;;;;;;4.63;2.60;;;33.40;99.90;;;;;;5011160;28;20435;-43
2022/08/11 09:16:46;;;;;;;6.70;3.10;;;33.60;99.90;;;;;;5011135;28;20442;-42
2022/08/11 09:19:17;;;;;;;5.97;2.57;;;33.60;99.90;;;;;;5011239;28;20254;-43
2022/08/11 09:26:58;;;;;;;4.57;3.03;;;33.70;99.90;;;;;;5011416;28;20889;-42
2022/08/11 09:27:21;;;;;;;5.43;2.20;;;33.70;99.90;;;;;;5011293;28;20429;-42
2022/08/11 09:29:47;;;;;;;2.80;2.60;;;33.90;99.90;;;;;;5011170;28;20790;-42
2022/08/11 09:32:13;;;;;;;4.23;2.50;;;33.90;99.90;;;;;;5010899;28;20454;-42
2022/08/11 09:34:39;;;;;;;4.70;2.30;;;33.80;99.90;;;;;;5010975;28;20423;-42
2022/08/11 09:45:25;;;;;;;4.60;2.90;;;33.70;99.90;;;;;;5010947;28;20409;-42
2022/08/11 09:47:52;;;;;;;3.77;2.43;;;33.70;99.90;;;;;;5010766;28;20417;-42
2022/08/11 09:50:18;;;;;;;3.03;2.57;;;33.70;99.90;;;;;;5010794;28;20441;-42
2022/08/11 09:52:47;;;;;;;4.40;2.23;;;33.60;99.90;;;;;;5010540;28;20477;-42
2022/08/11 09:55:14;;;;;;;6.27;3.10;;;33.40;99.90;;;;;;5013679;28;20421;-42
2022/08/11 10:00:31;;;;;;;14.90;2.40;;;33.00;99.90;;;;;;5014594;28;20811;-41
2022/08/11 10:03:00;;;;;;;3.03;2.13;;;32.90;99.90;;;;;;5014619;28;20512;-42
2022/08/11 10:08:13;;;;;;;5.90;2.50;;;32.90;99.90;;;;;;5034252;28;20749;-42
2022/08/11 10:10:40;;;;;;;4.87;2.37;;;32.90;99.90;;;;;;5034308;28;20405;-42
2022/08/11 10:13:13;;;;;;;2.77;2.17;;;32.90;99.90;;;;;;5034395;28;20473;-42
2022/08/11 10:15:44;;;;;;;3.50;2.30;;;33.00;99.90;;;;;;5016225;28;20421;-42
2022/08/11 10:21:08;;;;;;;3.73;2.20;;;33.40;99.90;;;;;;5034166;28;20400;-42
2022/08/11 10:34:47;;;;;;;3.73;2.50;;;34.20;99.90;;;;;;5033969;28;20459;-42
2022/08/11 10:37:14;;;;;;;6.70;2.80;;;34.30;99.90;;;;;;5033797;28;20504;-44
2022/08/11 10:39:41;;;;;;;2.40;2.20;;;34.70;99.90;;;;;;5033469;28;20438;-42
2022/08/11 10:44:56;;;;;;;3.93;2.40;;;35.00;99.90;;;;;;5033834;28;20417;-42
2022/08/11 10:47:34;;;;;;;4.40;2.50;;;35.20;99.90;;;;;;5033552;28;20483;-42
2022/08/11 11:01:05;;;;;;;3.63;2.27;;;35.90;99.90;;;;;;5033487;28;20444;-42
2022/08/11 11:03:35;;;;;;;3.27;2.33;;;36.10;99.90;;;;;;5033345;28;20798;-43
2022/08/11 11:06:34;;;;;;;2.60;2.40;;;36.40;99.90;;;;;;5032562;28;20426;-42
2022/08/11 11:09:11;;;;;;;2.10;2.00;;;36.30;99.90;;;;;;5033248;28;20426;-42
2022/08/11 11:20:04;;;;;;;2.80;1.80;;;36.80;99.90;;;;;;5033030;28;20441;-43
2022/08/11 11:22:39;;;;;;;4.27;2.10;;;36.70;99.90;;;;;;5033270;28;20434;-43
2022/08/11 11:25:13;;;;;;;4.90;1.83;;;36.80;99.90;;;;;;5032914;28;20777;-43
2022/08/11 11:28:09;;;;;;;4.23;2.20;;;36.60;99.90;;;;;;5032810;28;20456;-42
2022/08/11 11:30:47;;;;;;;8.83;2.17;;;36.80;99.90;;;;;;5032817;28;20417;-42
2022/08/11 11:33:29;;;;;;;3.33;2.07;;;37.20;99.90;;;;;;5032716;28;20441;-43
2022/08/11 11:36:05;;;;;;;2.10;1.90;;;37.30;99.90;;;;;;5032931;28;20380;-42
2022/08/11 11:38:31;;;;;;;2.80;2.17;;;37.60;99.90;;;;;;5032647;28;20401;-43
2022/08/11 11:43:42;;;;;;;2.53;2.20;;;36.80;99.90;;;;;;5032600;28;20559;-42
2022/08/11 11:46:09;;;;;;;5.13;2.07;;;37.10;99.90;;;;;;5032400;28;20406;-43
2022/08/11 11:48:36;;;;;;;4.90;1.93;;;37.50;99.90;;;;;;5032466;28;20433;-42
2022/08/11 11:51:02;;;;;;;2.20;2.10;;;37.80;99.90;;;;;;5031145;28;20441;-43
2022/08/11 11:53:28;;;;;;;6.60;2.10;;;38.00;99.90;;;;;;5014339;28;20497;-43
2022/08/11 11:55:55;;;;;;;5.83;2.10;;;37.90;99.90;;;;;;5031629;28;20924;-43
2022/08/11 12:01:15;;;;;;;3.57;1.63;;;37.80;99.90;;;;;;5032727;28;20405;-42
2022/08/11 12:03:44;;;;;;;4.23;2.20;;;38.00;99.90;;;;;;5030326;28;20469;-43
2022/08/11 12:06:13;;;;;;;5.57;1.93;;;38.30;99.90;;;;;;5028829;28;20994;-42
2022/08/11 12:08:40;;;;;;;2.87;2.10;;;38.40;99.90;;;;;;5032186;28;20388;-43
2022/08/11 12:13:57;;;;;;;2.87;2.00;;;38.30;99.90;;;;;;5031621;28;20425;-42
2022/08/11 12:16:23;;;;;;;4.73;1.90;;;38.20;99.90;;;;;;5027224;28;20919;-43
2022/08/11 12:18:55;;;;;;;2.57;1.63;;;38.40;99.90;;;;;;5026737;28;20448;-43
2022/08/11 12:21:22;;;;;;;3.10;2.13;;;38.30;99.90;;;;;;5029917;28;20758;-43
2022/08/11 12:29:19;;;;;;;4.30;1.77;;;37.60;99.90;;;;;;5030657;28;20502;-43
2022/08/11 12:31:46;;;;;;;2.00;1.77;;;37.80;99.90;;;;;;5029932;28;20457;-43
2022/08/11 12:34:14;;;;;;;4.20;1.60;;;38.00;99.90;;;;;;5030627;28;20422;-43
2022/08/11 12:36:43;;;;;;;4.70;1.50;;;37.80;99.90;;;;;;5029736;28;20517;-43
2022/08/11 12:39:12;;;;;;;2.60;1.37;;;37.60;99.90;;;;;;5012337;28;20445;-43
2022/08/11 12:47:17;;;;;;;2.70;1.57;;;37.60;99.90;;;;;;5029036;28;20836;-43
2022/08/11 12:52:47;;;;;;;3.23;1.67;;;37.60;99.90;;;;;;5029949;28;20479;-43
2022/08/11 12:58:17;;;;;;;3.10;1.93;;;37.30;99.90;;;;;;5030066;28;20413;-42
2022/08/11 13:06:19;;;;;;;2.07;1.70;;;38.30;99.90;;;;;;5029122;28;20491;-43
2022/08/11 13:08:45;;;;;;;5.27;1.60;;;37.90;99.90;;;;;;5029484;28;20441;-43
2022/08/11 13:13:57;;;;;;;2.40;1.40;;;38.30;99.90;;;;;;5029641;28;20943;-43
2022/08/11 13:16:26;;;;;;;2.77;1.47;;;38.00;99.90;;;;;;5028952;28;20931;-43
2022/08/11 13:18:52;;;;;;;2.40;1.33;;;37.60;99.90;;;;;;5029524;28;20484;-43
2022/08/11 13:21:18;;;;;;;2.83;1.60;;;37.40;99.90;;;;;;5028597;28;20511;-43
2022/08/11 13:23:45;;;;;;;4.33;2.20;;;37.20;99.90;;;;;;5029281;28;20449;-43
2022/08/11 13:26:11;;;;;;;9.57;1.67;;;37.10;99.90;;;;;;5030160;28;20249;-44
2022/08/11 13:28:38;;;;;;;2.23;1.70;;;37.10;99.90;;;;;;5029647;28;20923;-43
2022/08/11 13:31:11;;;;;;;3.80;1.60;;;37.40;99.90;;;;;;5029979;28;20461;-43
2022/08/11 13:33:41;;;;;;;1.70;1.60;;;37.60;99.90;;;;;;5030272;28;20867;-43
2022/08/11 13:36:08;;;;;;;2.97;1.60;;;37.50;99.90;;;;;;5030468;28;20430;-43
2022/08/11 13:38:36;;;;;;;6.50;1.93;;;37.50;99.90;;;;;;5030397;28;20819;-43
2022/08/11 13:41:36;;;;;;;1.60;1.50;;;37.50;99.90;;;;;;5030111;28;20508;-43
2022/08/11 13:43:48;;;;;;;1.83;1.40;;;37.60;99.90;;;;;;5029096;28;20907;-43
2022/08/11 13:46:19;;;;;;;2.80;1.33;;;37.80;99.90;;;;;;5029621;28;20442;-43
2022/08/11 13:48:45;;;;;;;2.80;1.60;;;37.70;99.90;;;;;;5030598;28;20416;-43
2022/08/11 13:51:32;;;;;;;4.70;1.47;;;37.60;99.90;;;;;;5029521;28;20437;-43
2022/08/11 13:54:11;;;;;;;2.90;1.53;;;37.50;99.90;;;;;;5030344;28;20962;-43
2022/08/11 13:56:41;;;;;;;3.90;1.63;;;37.60;99.90;;;;;;5029452;28;20548;-43
2022/08/11 13:59:07;;;;;;;1.70;1.60;;;37.60;99.90;;;;;;5030228;28;20465;-45
2022/08/11 14:01:38;;;;;;;2.50;1.53;;;37.60;99.90;;;;;;5030317;28;20793;-42
2022/08/11 14:04:12;;;;;;;2.90;1.57;;;37.50;99.90;;;;;;5030450;28;20406;-43
2022/08/11 14:06:43;;;;;;;3.40;1.90;;;37.30;99.90;;;;;;5010693;28;20452;-42
2022/08/11 14:09:11;;;;;;;3.53;1.60;;;36.80;99.90;;;;;;5018802;28;20503;-43
2022/08/11 14:14:32;;;;;;;2.10;1.63;;;36.80;99.90;;;;;;5027732;28;20452;-43
2022/08/11 14:17:03;;;;;;;4.00;1.60;;;36.80;99.90;;;;;;5029569;28;20449;-43
2022/08/11 14:19:34;;;;;;;3.27;1.70;;;36.60;99.90;;;;;;5029897;28;20448;-44
2022/08/11 14:22:07;;;;;;;3.63;1.67;;;36.60;99.90;;;;;;5029107;28;20424;-43
2022/08/11 14:24:39;;;;;;;1.60;1.50;;;36.80;99.90;;;;;;5030030;28;20434;-43
2022/08/11 14:27:07;;;;;;;1.90;1.80;;;37.00;99.90;;;;;;5029591;28;20449;-44
2022/08/11 14:29:37;;;;;;;2.27;1.50;;;37.00;99.90;;;;;;5018371;28;20428;-43
2022/08/11 14:32:05;;;;;;;6.30;1.57;;;36.70;99.90;;;;;;5010374;28;21151;-42
2022/08/11 14:34:33;;;;;;;1.50;1.40;;;36.40;99.90;;;;;;5010291;28;20415;-43
2022/08/11 14:37:11;;;;;;;2.07;1.80;;;36.20;99.90;;;;;;5010624;28;20381;-43
2022/08/11 14:39:57;;;;;;;5.10;1.97;;;36.30;99.90;;;;;;5019832;28;20442;-43
2022/08/11 14:48:01;;;;;;;2.13;1.50;;;36.00;99.90;;;;;;5033586;28;20783;-43
2022/08/11 14:50:28;;;;;;;2.03;1.70;;;35.80;99.90;;;;;;5032614;28;20422;-44
2022/08/11 14:53:00;;;;;;;6.83;1.90;;;35.60;99.90;;;;;;5033564;28;20485;-43
2022/08/11 14:58:17;;;;;;;8.83;2.07;;;35.40;99.90;;;;;;5032294;28;20910;-43
2022/08/11 15:00:44;;;;;;;3.70;1.80;;;35.20;99.90;;;;;;5032591;28;20430;-42
2022/08/11 15:03:12;;;;;;;7.23;1.90;;;35.10;99.90;;;;;;5033365;28;20422;-43
2022/08/11 15:05:49;;;;;;;3.77;1.73;;;35.00;99.90;;;;;;5033190;28;20485;-43
2022/08/11 15:08:16;;;;;;;3.03;1.50;;;34.90;99.90;;;;;;5033026;28;20468;-43
2022/08/11 15:10:43;;;;;;;4.53;1.50;;;34.70;99.90;;;;;;5031645;28;20936;-44
2022/08/11 15:13:09;;;;;;;4.10;2.13;;;34.50;99.90;;;;;;5033081;28;20862;-43
2022/08/11 15:18:23;;;;;;;4.93;1.67;;;34.00;99.90;;;;;;5033327;28;20950;-43
2022/08/11 15:37:25;;;;;;;2.03;1.83;;;33.90;99.90;;;;;;5031915;28;20538;-44
2022/08/11 15:37:34;;;;;;;2.20;2.00;;;33.20;99.90;;;;;;5032017;28;20468;-44
2022/08/11 15:45:48;;;;;;;2.47;1.73;;;32.70;99.90;;;;;;5012998;28;20421;-43
2022/08/11 15:48:29;;;;;;;6.93;1.90;;;32.70;99.90;;;;;;5012760;28;20872;-44
2022/08/11 15:51:02;;;;;;;2.50;1.83;;;32.60;99.90;;;;;;5012357;28;20751;-44
2022/08/11 15:53:48;;;;;;;3.90;1.97;;;32.40;99.90;;;;;;5018454;28;20519;-44
2022/08/11 15:56:15;;;;;;;2.37;1.90;;;32.30;99.90;;;;;;5014700;28;20432;-48
2022/08/11 16:04:23;;;;;;;4.50;2.10;;;31.80;99.90;;;;;;5031259;28;20456;-46
2022/08/11 16:07:15;;;;;;;3.53;2.03;;;31.70;99.90;;;;;;5032571;28;20866;-47
2022/08/11 16:09:46;;;;;;;2.97;2.00;;;31.60;99.90;;;;;;5012634;28;20423;-47
2022/08/11 16:12:20;;;;;;;3.93;1.90;;;31.50;99.90;;;;;;5030619;28;20803;-47
2022/08/11 16:17:41;;;;;;;5.53;1.97;;;31.30;99.90;;;;;;5028605;28;21007;-47
2022/08/11 16:20:08;;;;;;;6.63;2.10;;;31.20;99.90;;;;;;5012445;28;21183;-47
2022/08/11 16:22:42;;;;;;;3.50;1.80;;;31.10;99.90;;;;;;5012490;28;20421;-47
2022/08/11 16:25:14;;;;;;;2.23;2.03;;;30.90;99.90;;;;;;5011998;28;20445;-47
2022/08/11 16:27:48;;;;;;;2.40;2.20;;;30.80;99.90;;;;;;5020674;28;20446;-46
2022/08/11 16:30:14;;;;;;;6.83;2.17;;;30.60;99.90;;;;;;5031747;28;20946;-47
2022/08/11 16:32:43;;;;;;;2.03;1.93;;;30.40;99.90;;;;;;5031363;28;20465;-47
2022/08/11 16:40:53;;;;;;;4.73;1.97;;;29.90;99.90;;;;;;5031718;28;20472;-46
2022/08/11 16:48:57;;;;;;;6.10;2.00;;;29.50;99.90;;;;;;5031742;28;20428;-46
2022/08/11 16:51:23;;;;;;;7.93;1.90;;;29.30;99.90;;;;;;5031284;28;20432;-46
2022/08/11 16:53:50;;;;;;;7.77;1.93;;;29.10;99.90;;;;;;5030137;28;20489;-47
2022/08/11 16:56:26;;;;;;;2.63;2.20;;;28.90;99.90;;;;;;5030018;28;20195;-46
2022/08/11 17:01:43;;;;;;;10.73;2.10;;;28.60;99.90;;;;;;5031240;28;20846;-47
2022/08/11 17:13:17;;;;;;;2.50;2.07;;;28.00;99.90;;;;;;5030630;28;20819;-47
2022/08/11 17:16:08;;;;;;;6.50;1.97;;;27.90;99.90;;;;;;5030061;28;20437;-46
2022/08/11 17:18:58;;;;;;;4.70;2.20;;;27.80;99.90;;;;;;5031054;28;20398;-46
2022/08/11 17:21:29;;;;;;;13.27;2.20;;;27.60;99.90;;;;;;5030800;28;20441;-49
2022/08/11 17:24:07;;;;;;;2.87;1.80;;;27.50;99.90;;;;;;5030966;28;20401;-46
2022/08/11 17:26:57;;;;;;;7.00;2.20;;;27.40;99.90;;;;;;5029761;28;20528;-47
2022/08/11 17:29:31;;;;;;;3.73;2.30;;;27.30;99.90;;;;;;5030815;28;20394;-49
2022/08/11 17:37:33;;;;;;;4.20;1.90;;;27.00;99.90;;;;;;5029676;28;20879;-48
2022/08/11 17:40:03;;;;;;;3.33;2.03;;;26.90;99.90;;;;;;5030815;28;20477;-48
2022/08/11 17:50:49;;;;;;;5.90;1.90;;;26.50;99.90;;;;;;5030682;28;20433;-47
2022/08/11 18:01:37;;;;;;;2.63;1.80;;;26.10;99.90;;;;;;5029964;28;20524;-48
2022/08/11 18:04:06;;;;;;;5.37;2.23;;;26.00;99.90;;;;;;5030661;28;20476;-48
2022/08/11 18:06:33;;;;;;;5.10;1.73;;;25.90;99.90;;;;;;5018201;28;20445;-48
